createdAt,value
2017-04-24T00:00:08.380Z,4.03
2017-04-24T00:01:07.292Z,4.02
2017-04-24T00:02:07.059Z,4.22
2017-04-24T00:03:05.968Z,5.25
2017-04-24T00:04:05.640Z,4.30
2017-04-24T00:05:04.533Z,4.38
2017-04-24T00:06:03.439Z,3.72
2017-04-24T00:07:03.087Z,4.47
2017-04-24T00:08:01.988Z,4.33
2017-04-24T00:09:00.933Z,4.90
2017-04-24T00:09:59.833Z,4.45
2017-04-24T00:10:58.743Z,4.52
2017-04-24T00:11:57.647Z,4.77
2017-04-24T00:12:56.555Z,4.18
2017-04-24T00:13:55.551Z,4.12
2017-04-24T00:14:54.477Z,4.58
2017-04-24T00:15:54.115Z,4.15
2017-04-24T00:16:53.057Z,4.05
2017-04-24T00:17:52.796Z,4.13
2017-04-24T00:18:51.700Z,4.37
2017-04-24T00:19:50.611Z,4.85
2017-04-24T00:20:49.567Z,3.67
2017-04-24T00:21:48.496Z,4.15
2017-04-24T00:22:48.175Z,4.50
2017-04-24T00:23:47.085Z,4.03
2017-04-24T00:24:46.004Z,4.20
2017-04-24T00:25:44.937Z,4.27
2017-04-24T00:26:43.861Z,4.68
2017-04-24T00:27:42.768Z,4.13
2017-04-24T00:28:41.674Z,4.32
2017-04-24T00:29:41.308Z,4.58
2017-04-24T00:30:40.252Z,4.38
2017-04-24T00:31:39.984Z,4.40
2017-04-24T00:32:38.941Z,4.42
2017-04-24T00:33:37.836Z,4.32
2017-04-24T00:34:36.840Z,4.02
2017-04-24T00:35:35.744Z,4.08
2017-04-24T00:36:34.649Z,3.78
2017-04-24T00:37:34.292Z,4.13
2017-04-24T00:38:33.244Z,5.02
2017-04-24T00:39:32.904Z,4.27
2017-04-24T00:40:31.800Z,4.23
2017-04-24T00:41:30.717Z,4.12
2017-04-24T00:42:29.641Z,4.40
2017-04-24T00:43:28.553Z,4.72
2017-04-24T00:44:28.226Z,4.70
2017-04-24T00:45:27.128Z,3.97
2017-04-24T00:46:26.789Z,4.10
2017-04-24T00:47:25.687Z,4.30
2017-04-24T00:48:24.573Z,3.67
2017-04-24T00:49:23.489Z,4.23
2017-04-24T00:50:22.429Z,3.90
2017-04-24T00:51:21.341Z,4.30
2017-04-24T00:52:20.248Z,4.02
2017-04-24T00:53:19.247Z,3.98
2017-04-24T00:54:18.148Z,3.97
2017-04-24T00:55:17.058Z,4.08
2017-04-24T00:56:16.741Z,4.18
2017-04-24T00:57:15.656Z,4.50
2017-04-24T00:58:14.564Z,4.32
2017-04-24T00:59:13.459Z,4.48
2017-04-24T01:00:12.364Z,4.63
2017-04-24T01:01:11.312Z,4.12
2017-04-24T01:02:10.258Z,4.68
2017-04-24T01:03:09.157Z,4.18
2017-04-24T01:04:08.065Z,4.45
2017-04-24T01:05:06.980Z,4.28
2017-04-24T01:06:05.889Z,4.30
2017-04-24T01:07:04.803Z,4.35
2017-04-24T01:08:03.762Z,4.10
2017-04-24T01:09:02.663Z,4.50
2017-04-24T01:10:01.554Z,4.08
2017-04-24T01:11:00.472Z,4.28
2017-04-24T01:12:00.111Z,4.42
2017-04-24T01:12:59.020Z,4.43
2017-04-24T01:13:57.947Z,4.60
2017-04-24T01:14:57.589Z,4.40
2017-04-24T01:15:56.527Z,4.30
2017-04-24T01:16:56.174Z,3.88
2017-04-24T01:17:55.073Z,4.27
2017-04-24T01:18:53.966Z,3.95
2017-04-24T01:19:53.629Z,4.40
2017-04-24T01:20:52.540Z,4.60
2017-04-24T01:21:52.194Z,4.10
2017-04-24T01:22:51.146Z,4.33
2017-04-24T01:23:50.083Z,3.95
2017-04-24T01:24:49.016Z,4.32
2017-04-24T01:25:47.948Z,4.83
2017-04-24T01:26:46.862Z,4.60
2017-04-24T01:27:46.496Z,4.50
2017-04-24T01:28:45.397Z,4.50
2017-04-24T01:29:44.345Z,4.52
2017-04-24T01:30:43.273Z,4.75
2017-04-24T01:31:42.221Z,4.38
2017-04-24T01:32:41.132Z,4.65
2017-04-24T01:33:40.394Z,4.38
2017-04-24T01:34:39.332Z,4.73
2017-04-24T01:35:38.996Z,5.10
2017-04-24T01:36:37.909Z,4.82
2017-04-24T01:37:37.576Z,4.20
2017-04-24T01:38:36.473Z,4.92
2017-04-24T01:39:35.380Z,4.95
2017-04-24T01:40:35.005Z,4.70
2017-04-24T01:41:33.915Z,5.00
2017-04-24T01:42:32.849Z,4.30
2017-04-24T01:43:31.770Z,5.37
2017-04-24T01:44:30.681Z,4.33
2017-04-24T01:45:29.592Z,5.13
2017-04-24T01:46:28.475Z,5.25
2017-04-24T01:47:27.373Z,5.27
2017-04-24T01:48:26.330Z,5.25
2017-04-24T01:49:25.304Z,4.62
2017-04-24T01:50:24.969Z,5.57
2017-04-24T01:51:23.899Z,5.55
2017-04-24T01:52:23.272Z,4.94
2017-04-24T01:53:22.917Z,5.35
2017-04-24T01:54:21.873Z,4.80
2017-04-24T01:55:20.818Z,4.85
2017-04-24T01:56:19.761Z,5.57
2017-04-24T01:57:18.660Z,5.38
2017-04-24T01:58:17.604Z,5.87
2017-04-24T01:59:16.504Z,6.42
2017-04-24T02:00:15.403Z,4.88
2017-04-24T02:01:14.380Z,5.00
2017-04-24T02:02:13.305Z,5.88
2017-04-24T02:03:12.293Z,5.82
2017-04-24T02:04:11.201Z,5.77
2017-04-24T02:05:10.107Z,5.12
2017-04-24T02:06:08.995Z,5.30
2017-04-24T02:07:07.944Z,5.80
2017-04-24T02:08:06.887Z,5.77
2017-04-24T02:09:06.550Z,6.10
2017-04-24T02:10:05.474Z,5.58
2017-04-24T02:11:05.119Z,6.18
2017-04-24T02:12:04.042Z,5.45
2017-04-24T02:13:03.741Z,6.57
2017-04-24T02:14:03.387Z,5.52
2017-04-24T02:15:02.313Z,6.42
2017-04-24T02:16:01.968Z,5.93
2017-04-24T02:17:00.899Z,5.88
2017-04-24T02:18:00.576Z,5.73
2017-04-24T02:18:59.515Z,6.10
2017-04-24T02:19:58.433Z,6.42
2017-04-24T02:20:57.312Z,6.38
2017-04-24T02:21:56.222Z,6.60
2017-04-24T02:22:55.853Z,6.92
2017-04-24T02:23:54.790Z,6.42
2017-04-24T02:24:53.725Z,5.53
2017-04-24T02:25:52.653Z,5.80
2017-04-24T02:26:51.572Z,5.78
2017-04-24T02:27:50.503Z,6.33
2017-04-24T02:28:49.445Z,6.37
2017-04-24T02:29:48.339Z,6.60
2017-04-24T02:30:47.290Z,5.73
2017-04-24T02:31:46.187Z,6.18
2017-04-24T02:32:45.083Z,6.65
2017-04-24T02:33:44.000Z,5.57
2017-04-24T02:34:43.670Z,6.18
2017-04-24T02:35:42.587Z,6.18
2017-04-24T02:36:42.252Z,6.45
2017-04-24T02:37:41.180Z,6.48
2017-04-24T02:38:40.841Z,6.47
2017-04-24T02:39:39.767Z,6.28
2017-04-24T02:40:38.667Z,6.35
2017-04-24T02:41:37.569Z,5.87
2017-04-24T02:42:36.504Z,5.98
2017-04-24T02:43:36.296Z,5.45
2017-04-24T02:44:35.953Z,4.90
2017-04-24T02:45:34.888Z,5.53
2017-04-24T02:46:33.806Z,5.10
2017-04-24T02:47:32.724Z,5.50
2017-04-24T02:48:31.706Z,5.65
2017-04-24T02:49:30.592Z,5.40
2017-04-24T02:50:30.272Z,5.22
2017-04-24T02:51:30.544Z,5.40
2017-04-24T02:52:29.431Z,5.38
2017-04-24T02:53:28.340Z,5.47
2017-04-24T02:54:27.265Z,5.30
2017-04-24T02:55:26.928Z,5.42
2017-04-24T02:56:25.879Z,5.33
2017-04-24T02:57:24.784Z,5.68
2017-04-24T02:58:23.708Z,5.05
2017-04-24T02:59:22.641Z,4.83
2017-04-24T03:00:21.572Z,4.80
2017-04-24T03:01:20.463Z,5.22
2017-04-24T03:02:19.367Z,4.60
2017-04-24T03:03:18.292Z,4.35
2017-04-24T03:04:17.946Z,4.55
2017-04-24T03:05:16.874Z,4.65
2017-04-24T03:06:16.555Z,4.57
2017-04-24T03:07:15.456Z,4.75
2017-04-24T03:08:15.101Z,5.02
2017-04-24T03:09:14.021Z,5.12
2017-04-24T03:10:12.916Z,4.82
2017-04-24T03:11:12.572Z,4.95
2017-04-24T03:12:11.480Z,4.67
2017-04-24T03:13:10.376Z,4.47
2017-04-24T03:14:10.040Z,4.40
2017-04-24T03:15:08.946Z,4.32
2017-04-24T03:16:07.859Z,4.32
2017-04-24T03:17:06.768Z,4.40
2017-04-24T03:18:05.700Z,4.20
2017-04-24T03:19:06.345Z,4.10
2017-04-24T03:20:05.244Z,4.47
2017-04-24T03:21:04.164Z,4.47
2017-04-24T03:22:03.091Z,4.37
2017-04-24T03:23:02.325Z,3.92
2017-04-24T03:24:01.272Z,3.92
2017-04-24T03:25:00.177Z,4.15
2017-04-24T03:25:59.085Z,4.35
2017-04-24T03:26:58.742Z,4.30
2017-04-24T03:27:57.693Z,4.78
2017-04-24T03:28:56.634Z,4.60
2017-04-24T03:29:55.572Z,4.70
2017-04-24T03:30:54.471Z,4.68
2017-04-24T03:31:53.384Z,4.87
2017-04-24T03:32:52.308Z,4.40
2017-04-24T03:33:51.224Z,4.43
2017-04-24T03:34:50.130Z,4.52
2017-04-24T03:35:49.083Z,4.60
2017-04-24T03:36:48.031Z,4.68
2017-04-24T03:37:46.945Z,5.07
2017-04-24T03:38:45.864Z,4.70
2017-04-24T03:39:45.505Z,4.75
2017-04-24T03:40:44.412Z,5.68
2017-04-24T03:41:43.335Z,4.60
2017-04-24T03:42:42.232Z,4.53
2017-04-24T03:43:41.148Z,5.12
2017-04-24T03:44:40.069Z,4.62
2017-04-24T03:45:39.687Z,4.82
2017-04-24T03:46:38.664Z,4.32
2017-04-24T03:47:37.593Z,4.80
2017-04-24T03:48:36.500Z,4.03
2017-04-24T03:49:35.403Z,3.94
2017-04-24T03:50:34.339Z,4.47
2017-04-24T03:51:33.249Z,4.57
2017-04-24T03:52:32.904Z,4.60
2017-04-24T03:53:31.856Z,4.80
2017-04-24T03:54:30.752Z,4.40
2017-04-24T03:55:29.685Z,4.43
2017-04-24T03:56:29.315Z,4.35
2017-04-24T03:57:28.209Z,4.45
2017-04-24T03:58:27.145Z,4.42
2017-04-24T03:59:26.799Z,4.70
2017-04-24T04:00:25.761Z,4.13
2017-04-24T04:01:24.693Z,4.85
2017-04-24T04:02:23.600Z,4.43
2017-04-24T04:03:23.254Z,4.40
2017-04-24T04:04:22.152Z,4.30
2017-04-24T04:05:21.473Z,4.00
2017-04-24T04:06:20.391Z,4.63
2017-04-24T04:07:19.332Z,4.40
2017-04-24T04:08:18.987Z,4.32
2017-04-24T04:09:17.924Z,3.90
2017-04-24T04:10:16.835Z,5.35
2017-04-24T04:11:15.763Z,4.58
2017-04-24T04:12:15.411Z,4.50
2017-04-24T04:13:14.326Z,4.47
2017-04-24T04:14:13.231Z,4.50
2017-04-24T04:15:12.881Z,4.43
2017-04-24T04:16:11.802Z,4.58
2017-04-24T04:17:12.388Z,4.40
2017-04-24T04:18:11.285Z,4.18
2017-04-24T04:19:10.184Z,4.20
2017-04-24T04:20:09.860Z,4.08
2017-04-24T04:21:08.765Z,4.18
2017-04-24T04:22:08.400Z,4.58
2017-04-24T04:23:07.331Z,5.10
2017-04-24T04:24:06.234Z,4.60
2017-04-24T04:25:05.883Z,4.98
2017-04-24T04:26:04.780Z,4.85
2017-04-24T04:27:03.722Z,4.85
2017-04-24T04:28:02.652Z,4.72
2017-04-24T04:29:01.598Z,4.42
2017-04-24T04:30:00.528Z,4.83
2017-04-24T04:31:00.189Z,4.48
2017-04-24T04:31:59.101Z,4.30
2017-04-24T04:32:58.731Z,4.68
2017-04-24T04:33:57.664Z,4.72
2017-04-24T04:34:56.603Z,4.38
2017-04-24T04:35:55.520Z,4.20
2017-04-24T04:36:54.434Z,4.17
2017-04-24T04:37:54.087Z,4.53
2017-04-24T04:38:52.985Z,4.17
2017-04-24T04:39:51.882Z,4.55
2017-04-24T04:40:51.603Z,4.50
2017-04-24T04:41:50.533Z,4.55
2017-04-24T04:42:49.715Z,4.58
2017-04-24T04:43:48.650Z,4.40
2017-04-24T04:44:47.583Z,4.97
2017-04-24T04:45:46.487Z,4.60
2017-04-24T04:46:45.488Z,4.80
2017-04-24T04:47:45.145Z,3.77
2017-04-24T04:48:44.069Z,5.20
2017-04-24T04:49:43.759Z,4.90
2017-04-24T04:50:43.443Z,4.44
2017-04-24T04:51:42.422Z,4.80
2017-04-24T04:52:41.336Z,4.40
2017-04-24T04:53:40.263Z,4.18
2017-04-24T04:54:39.155Z,4.28
2017-04-24T04:55:38.056Z,4.13
2017-04-24T04:56:36.959Z,4.95
2017-04-24T04:57:36.605Z,4.40
2017-04-24T04:58:35.564Z,4.95
2017-04-24T04:59:34.480Z,4.68
2017-04-24T05:00:33.397Z,4.82
2017-04-24T05:01:32.357Z,4.27
2017-04-24T05:02:31.317Z,4.35
2017-04-24T05:03:30.229Z,4.40
2017-04-24T05:04:29.896Z,4.57
2017-04-24T05:05:28.783Z,4.75
2017-04-24T05:06:27.684Z,4.93
2017-04-24T05:07:27.356Z,5.30
2017-04-24T05:08:26.300Z,6.13
2017-04-24T05:09:25.274Z,4.70
2017-04-24T05:10:24.210Z,5.12
2017-04-24T05:11:23.127Z,4.95
2017-04-24T05:12:22.428Z,5.20
2017-04-24T05:13:21.324Z,4.85
2017-04-24T05:14:20.229Z,4.70
2017-04-24T05:15:19.137Z,5.62
2017-04-24T05:16:18.117Z,4.82
2017-04-24T05:17:17.025Z,5.00
2017-04-24T05:18:15.966Z,4.95
2017-04-24T05:19:14.880Z,4.85
2017-04-24T05:20:14.532Z,4.48
2017-04-24T05:21:13.459Z,4.18
2017-04-24T05:22:13.130Z,4.70
2017-04-24T05:23:12.072Z,4.77
2017-04-24T05:24:10.972Z,5.55
2017-04-24T05:25:09.891Z,4.68
2017-04-24T05:26:09.565Z,4.82
2017-04-24T05:27:08.551Z,4.57
2017-04-24T05:28:07.625Z,4.37
2017-04-24T05:29:06.532Z,4.45
2017-04-24T05:30:05.803Z,4.87
2017-04-24T05:31:04.722Z,4.68
2017-04-24T05:32:04.475Z,5.03
2017-04-24T05:33:03.389Z,4.90
2017-04-24T05:34:03.068Z,5.35
2017-04-24T05:35:02.221Z,4.83
2017-04-24T05:36:01.138Z,5.90
2017-04-24T05:37:00.052Z,5.82
2017-04-24T05:37:58.977Z,5.33
2017-04-24T05:38:57.913Z,4.88
2017-04-24T05:39:56.883Z,4.68
2017-04-24T05:40:55.916Z,4.97
2017-04-24T05:41:54.840Z,5.33
2017-04-24T05:42:53.784Z,5.02
2017-04-24T05:43:52.673Z,5.40
2017-04-24T05:44:51.589Z,5.20
2017-04-24T05:45:51.264Z,4.80
2017-04-24T05:46:50.168Z,4.50
2017-04-24T05:47:49.841Z,5.00
2017-04-24T05:48:48.741Z,4.28
2017-04-24T05:49:47.730Z,4.67
2017-04-24T05:50:46.692Z,4.70
2017-04-24T05:51:45.863Z,4.10
2017-04-24T05:52:44.887Z,4.60
2017-04-24T05:53:44.601Z,4.33
2017-04-24T05:54:43.532Z,5.90
2017-04-24T05:55:42.632Z,4.20
2017-04-24T05:56:41.539Z,4.07
2017-04-24T05:57:41.231Z,4.63
2017-04-24T05:58:39.432Z,4.27
2017-04-24T05:59:38.380Z,4.62
2017-04-24T06:00:37.320Z,4.43
2017-04-24T06:01:36.222Z,4.53
2017-04-24T06:02:35.176Z,5.43
2017-04-24T06:03:35.772Z,4.92
2017-04-24T06:04:34.812Z,4.78
2017-04-24T06:05:34.171Z,4.90
2017-04-24T06:06:33.331Z,4.30
2017-04-24T06:07:32.251Z,4.82
2017-04-24T06:08:31.208Z,5.40
2017-04-24T06:09:30.147Z,4.43
2017-04-24T06:10:29.815Z,4.60
2017-04-24T06:11:28.736Z,5.33
2017-04-24T06:12:28.425Z,4.52
2017-04-24T06:13:28.102Z,5.00
2017-04-24T06:14:27.051Z,5.23
2017-04-24T06:15:26.030Z,5.22
2017-04-24T06:16:24.976Z,5.00
2017-04-24T06:17:23.891Z,4.50
2017-04-24T06:18:22.821Z,5.20
2017-04-24T06:19:21.817Z,5.20
2017-04-24T06:20:21.788Z,4.97
2017-04-24T06:21:20.757Z,4.98
2017-04-24T06:22:19.660Z,5.28
2017-04-24T06:23:18.577Z,5.05
2017-04-24T06:24:17.545Z,5.16
2017-04-24T06:25:17.231Z,5.13
2017-04-24T06:26:16.184Z,5.50
2017-04-24T06:27:15.317Z,5.00
2017-04-24T06:28:15.048Z,5.27
2017-04-24T06:29:13.981Z,4.77
2017-04-24T06:30:12.920Z,5.22
2017-04-24T06:31:11.844Z,5.78
2017-04-24T06:32:10.873Z,5.18
2017-04-24T06:33:09.805Z,5.87
2017-04-24T06:34:09.135Z,4.93
2017-04-24T06:35:08.848Z,5.15
2017-04-24T06:36:08.845Z,4.57
2017-04-24T06:37:07.799Z,4.83
2017-04-24T06:38:07.492Z,5.20
2017-04-24T06:39:06.609Z,4.90
2017-04-24T06:40:06.020Z,5.44
2017-04-24T06:41:05.008Z,5.82
2017-04-24T06:42:03.976Z,5.10
2017-04-24T06:43:02.961Z,5.48
2017-04-24T06:44:01.938Z,5.33
2017-04-24T06:45:00.934Z,5.47
2017-04-24T06:45:59.884Z,5.60
2017-04-24T06:46:58.840Z,5.40
2017-04-24T06:47:58.163Z,5.90
2017-04-24T06:48:57.107Z,5.72
2017-04-24T06:49:56.019Z,6.20
2017-04-24T06:50:54.983Z,5.40
2017-04-24T06:51:54.629Z,5.60
2017-04-24T06:52:53.537Z,5.93
2017-04-24T06:53:52.567Z,6.07
2017-04-24T06:54:51.654Z,5.85
2017-04-24T06:55:50.612Z,6.00
2017-04-24T06:56:50.292Z,5.07
2017-04-24T06:57:49.231Z,5.43
2017-04-24T06:58:48.181Z,6.45
2017-04-24T06:59:47.943Z,5.80
2017-04-24T07:00:46.913Z,6.20
2017-04-24T07:01:45.822Z,6.20
2017-04-24T07:02:46.274Z,5.83
2017-04-24T07:03:45.208Z,6.12
2017-04-24T07:04:44.142Z,5.15
2017-04-24T07:05:43.084Z,6.07
2017-04-24T07:06:42.123Z,5.72
2017-04-24T07:07:41.152Z,5.77
2017-04-24T07:08:40.156Z,6.00
2017-04-24T07:09:39.849Z,6.55
2017-04-24T07:10:38.813Z,5.40
2017-04-24T07:11:37.719Z,6.28
2017-04-24T07:12:37.398Z,6.48
2017-04-24T07:13:36.303Z,6.32
2017-04-24T07:14:35.346Z,6.62
2017-04-24T07:15:34.280Z,6.47
2017-04-24T07:16:33.189Z,6.42
2017-04-24T07:17:32.096Z,6.37
2017-04-24T07:18:31.035Z,6.55
2017-04-24T07:19:29.987Z,6.00
2017-04-24T07:20:28.935Z,5.82
2017-04-24T07:21:27.884Z,6.17
2017-04-24T07:22:26.861Z,6.57
2017-04-24T07:23:25.797Z,6.67
2017-04-24T07:24:25.453Z,6.62
2017-04-24T07:25:24.454Z,6.33
2017-04-24T07:26:23.378Z,6.58
2017-04-24T07:27:23.033Z,6.23
2017-04-24T07:28:21.976Z,6.38
2017-04-24T07:29:20.960Z,6.32
2017-04-24T07:30:19.889Z,6.27
2017-04-24T07:31:18.830Z,6.92
2017-04-24T07:32:17.803Z,6.30
2017-04-24T07:33:16.775Z,6.47
2017-04-24T07:34:16.429Z,7.22
2017-04-24T07:35:15.344Z,7.15
2017-04-24T07:36:15.106Z,7.10
2017-04-24T07:37:14.012Z,7.27
2017-04-24T07:38:12.988Z,6.78
2017-04-24T07:39:11.916Z,6.90
2017-04-24T07:40:10.873Z,7.40
2017-04-24T07:41:10.528Z,6.72
2017-04-24T07:42:10.264Z,7.35
2017-04-24T07:43:09.958Z,7.08
2017-04-24T07:44:09.649Z,7.00
2017-04-24T07:45:08.606Z,6.40
2017-04-24T07:46:07.585Z,6.70
2017-04-24T07:47:06.514Z,7.37
2017-04-24T07:48:06.179Z,7.10
2017-04-24T07:49:05.121Z,7.77
2017-04-24T07:50:04.290Z,7.45
2017-04-24T07:51:03.261Z,7.45
2017-04-24T07:52:04.562Z,7.70
2017-04-24T07:53:03.471Z,7.05
2017-04-24T07:54:03.827Z,7.42
2017-04-24T07:55:02.773Z,7.22
2017-04-24T07:56:02.678Z,7.95
2017-04-24T07:57:02.343Z,7.32
2017-04-24T07:58:01.400Z,7.50
2017-04-24T07:59:00.341Z,7.62
2017-04-24T08:00:00.009Z,8.08
2017-04-24T08:00:58.913Z,8.45
2017-04-24T08:01:57.924Z,7.83
2017-04-24T08:02:56.859Z,8.63
2017-04-24T08:03:55.787Z,8.33
2017-04-24T08:04:54.732Z,8.72
2017-04-24T08:05:53.882Z,8.43
2017-04-24T08:06:52.831Z,8.82
2017-04-24T08:07:51.804Z,8.78
2017-04-24T08:08:50.730Z,8.17
2017-04-24T08:09:49.690Z,8.55
2017-04-24T08:10:48.607Z,7.98
2017-04-24T08:11:47.547Z,9.10
2017-04-24T08:12:46.480Z,9.70
2017-04-24T08:13:45.417Z,8.12
2017-04-24T08:14:44.352Z,8.78
2017-04-24T08:15:43.324Z,8.50
2017-04-24T08:16:42.257Z,9.03
2017-04-24T08:17:41.201Z,9.15
2017-04-24T08:18:40.166Z,8.80
2017-04-24T08:19:39.149Z,8.93
2017-04-24T08:20:38.064Z,9.48
2017-04-24T08:21:37.864Z,9.28
2017-04-24T08:22:37.526Z,10.27
2017-04-24T08:23:36.430Z,9.63
2017-04-24T08:24:36.119Z,9.58
2017-04-24T08:25:35.023Z,9.60
2017-04-24T08:26:35.120Z,10.17
2017-04-24T08:27:34.056Z,9.80
2017-04-24T08:28:32.993Z,10.42
2017-04-24T08:29:31.945Z,10.38
2017-04-24T08:30:31.503Z,9.87
2017-04-24T08:31:30.436Z,9.97
2017-04-24T08:32:29.408Z,10.05
2017-04-24T08:33:28.319Z,10.10
2017-04-24T08:34:27.316Z,10.00
2017-04-24T08:35:26.220Z,10.53
2017-04-24T08:36:25.163Z,9.97
2017-04-24T08:37:24.804Z,10.05
2017-04-24T08:38:23.804Z,11.20
2017-04-24T08:39:22.914Z,10.23
2017-04-24T08:40:22.608Z,11.12
2017-04-24T08:41:21.942Z,10.20
2017-04-24T08:42:20.911Z,9.90
2017-04-24T08:43:19.834Z,10.75
2017-04-24T08:44:18.794Z,10.88
2017-04-24T08:45:17.761Z,10.32
2017-04-24T08:46:16.681Z,11.23
2017-04-24T08:47:15.605Z,11.10
2017-04-24T08:48:15.308Z,11.27
2017-04-24T08:49:15.029Z,11.00
2017-04-24T08:50:13.955Z,10.70
2017-04-24T08:51:12.863Z,11.05
2017-04-24T08:52:12.516Z,11.17
2017-04-24T08:53:11.435Z,10.80
2017-04-24T08:54:11.149Z,10.75
2017-04-24T08:55:10.090Z,11.13
2017-04-24T08:56:09.001Z,11.02
2017-04-24T08:57:08.656Z,11.52
2017-04-24T08:58:07.564Z,11.08
2017-04-24T08:59:06.510Z,11.10
2017-04-24T09:00:05.457Z,11.48
2017-04-24T09:01:04.430Z,11.87
2017-04-24T09:02:04.121Z,11.18
2017-04-24T09:03:03.812Z,11.68
2017-04-24T09:04:02.731Z,11.92
2017-04-24T09:05:01.677Z,11.78
2017-04-24T09:06:00.646Z,11.30
2017-04-24T09:06:59.569Z,11.57
2017-04-24T09:07:58.534Z,11.47
2017-04-24T09:08:57.492Z,11.12
2017-04-24T09:09:56.416Z,11.38
2017-04-24T09:10:55.394Z,11.50
2017-04-24T09:11:54.366Z,11.62
2017-04-24T09:12:54.035Z,12.40
2017-04-24T09:13:53.005Z,11.77
2017-04-24T09:14:51.982Z,11.97
2017-04-24T09:15:50.901Z,11.90
2017-04-24T09:16:50.627Z,12.04
2017-04-24T09:17:49.564Z,11.20
2017-04-24T09:18:48.484Z,11.97
2017-04-24T09:19:47.409Z,12.30
2017-04-24T09:20:46.332Z,12.20
2017-04-24T09:21:45.256Z,13.08
2017-04-24T09:22:44.192Z,11.65
2017-04-24T09:23:43.897Z,12.98
2017-04-24T09:24:43.558Z,11.80
2017-04-24T09:25:42.486Z,12.15
2017-04-24T09:26:41.420Z,12.10
2017-04-24T09:27:40.335Z,12.15
2017-04-24T09:28:40.024Z,12.67
2017-04-24T09:29:38.991Z,11.82
2017-04-24T09:30:37.959Z,12.23
2017-04-24T09:31:37.952Z,13.17
2017-04-24T09:32:36.893Z,11.63
2017-04-24T09:33:36.260Z,12.02
2017-04-24T09:34:35.256Z,12.18
2017-04-24T09:35:34.970Z,12.78
2017-04-24T09:36:33.894Z,13.38
2017-04-24T09:37:32.910Z,13.40
2017-04-24T09:38:31.866Z,12.28
2017-04-24T09:39:30.804Z,12.23
2017-04-24T09:40:29.764Z,12.62
2017-04-24T09:41:29.432Z,12.37
2017-04-24T09:42:28.382Z,12.77
2017-04-24T09:43:27.436Z,12.40
2017-04-24T09:44:27.167Z,13.08
2017-04-24T09:45:26.287Z,12.78
2017-04-24T09:46:25.212Z,12.93
2017-04-24T09:47:24.142Z,13.52
2017-04-24T09:48:23.080Z,12.53
2017-04-24T09:49:22.001Z,12.72
2017-04-24T09:50:20.965Z,12.87
2017-04-24T09:51:19.902Z,13.45
2017-04-24T09:52:19.568Z,13.10
2017-04-24T09:53:18.551Z,13.00
2017-04-24T09:54:17.479Z,12.92
2017-04-24T09:55:17.209Z,13.17
2017-04-24T09:56:16.309Z,13.27
2017-04-24T09:57:15.268Z,12.05
2017-04-24T09:58:14.290Z,13.10
2017-04-24T09:59:13.236Z,13.25
2017-04-24T10:00:12.246Z,13.58
2017-04-24T10:01:11.196Z,13.22
2017-04-24T10:02:10.185Z,12.52
2017-04-24T10:03:09.106Z,12.98
2017-04-24T10:04:08.175Z,13.70
2017-04-24T10:05:07.108Z,13.45
2017-04-24T10:06:06.141Z,13.68
2017-04-24T10:07:05.123Z,14.10
2017-04-24T10:08:04.074Z,13.45
2017-04-24T10:09:03.056Z,13.02
2017-04-24T10:10:01.993Z,13.33
2017-04-24T10:11:00.932Z,13.67
2017-04-24T10:11:59.846Z,13.25
2017-04-24T10:12:58.758Z,13.44
2017-04-24T10:13:58.462Z,13.60
2017-04-24T10:14:57.432Z,12.83
2017-04-24T10:15:57.121Z,13.72
2017-04-24T10:16:56.795Z,14.17
2017-04-24T10:17:55.750Z,14.50
2017-04-24T10:18:54.688Z,13.02
2017-04-24T10:19:54.414Z,14.27
2017-04-24T10:20:53.363Z,14.40
2017-04-24T10:21:52.297Z,14.78
2017-04-24T10:22:51.278Z,14.63
2017-04-24T10:23:50.217Z,13.68
2017-04-24T10:24:49.881Z,13.23
2017-04-24T10:25:48.831Z,14.05
2017-04-24T10:26:47.748Z,14.25
2017-04-24T10:27:46.689Z,13.88
2017-04-24T10:28:45.656Z,14.27
2017-04-24T10:29:44.591Z,13.97
2017-04-24T10:30:43.508Z,13.90
2017-04-24T10:31:43.215Z,15.05
2017-04-24T10:32:42.151Z,15.25
2017-04-24T10:33:41.073Z,14.37
2017-04-24T10:34:40.765Z,14.57
2017-04-24T10:35:40.454Z,14.50
2017-04-24T10:36:39.364Z,13.43
2017-04-24T10:37:38.299Z,13.62
2017-04-24T10:38:37.338Z,13.58
2017-04-24T10:39:36.320Z,13.60
2017-04-24T10:40:35.240Z,14.07
2017-04-24T10:41:34.151Z,14.52
2017-04-24T10:42:34.101Z,14.32
2017-04-24T10:43:33.057Z,14.48
2017-04-24T10:44:32.020Z,14.17
2017-04-24T10:45:31.762Z,13.65
2017-04-24T10:46:30.756Z,14.07
2017-04-24T10:47:29.694Z,14.60
2017-04-24T10:48:29.394Z,14.13
2017-04-24T10:49:29.116Z,14.98
2017-04-24T10:50:28.660Z,14.32
2017-04-24T10:51:27.729Z,15.03
2017-04-24T10:52:27.020Z,15.63
2017-04-24T10:53:25.949Z,14.92
2017-04-24T10:54:24.864Z,14.63
2017-04-24T10:55:23.844Z,14.75
2017-04-24T10:56:22.883Z,14.62
2017-04-24T10:57:22.593Z,14.88
2017-04-24T10:58:22.284Z,15.37
2017-04-24T10:59:21.978Z,14.45
2017-04-24T11:00:21.751Z,14.67
2017-04-24T11:01:20.730Z,15.27
2017-04-24T11:02:19.678Z,16.12
2017-04-24T11:03:18.617Z,15.25
2017-04-24T11:04:17.873Z,14.38
2017-04-24T11:05:16.801Z,14.70
2017-04-24T11:06:15.801Z,14.60
2017-04-24T11:07:14.791Z,15.90
2017-04-24T11:08:13.762Z,14.52
2017-04-24T11:09:12.725Z,14.18
2017-04-24T11:10:12.399Z,15.00
2017-04-24T11:11:11.432Z,14.83
2017-04-24T11:12:10.399Z,14.28
2017-04-24T11:13:10.099Z,15.25
2017-04-24T11:14:09.021Z,16.32
2017-04-24T11:15:07.952Z,15.06
2017-04-24T11:16:06.856Z,16.12
2017-04-24T11:17:06.538Z,16.15
2017-04-24T11:18:06.235Z,14.58
2017-04-24T11:19:05.950Z,15.73
2017-04-24T11:20:04.933Z,15.05
2017-04-24T11:21:03.903Z,16.18
2017-04-24T11:22:03.657Z,15.93
2017-04-24T11:23:02.654Z,15.85
2017-04-24T11:24:01.585Z,15.98
2017-04-24T11:25:01.308Z,16.28
2017-04-24T11:26:00.273Z,16.03
2017-04-24T11:26:59.202Z,16.65
2017-04-24T11:27:58.182Z,15.97
2017-04-24T11:28:57.148Z,15.37
2017-04-24T11:29:56.063Z,14.18
2017-04-24T11:30:55.749Z,14.80
2017-04-24T11:31:54.711Z,14.97
2017-04-24T11:32:53.666Z,14.63
2017-04-24T11:33:53.091Z,15.68
2017-04-24T11:34:52.055Z,15.53
2017-04-24T11:35:51.024Z,15.30
2017-04-24T11:36:50.024Z,16.33
2017-04-24T11:37:48.964Z,16.32
2017-04-24T11:38:48.615Z,15.72
2017-04-24T11:39:47.570Z,15.48
2017-04-24T11:40:46.505Z,15.10
2017-04-24T11:41:45.437Z,14.70
2017-04-24T11:42:44.376Z,15.43
2017-04-24T11:43:44.060Z,15.90
2017-04-24T11:44:42.987Z,14.23
2017-04-24T11:45:41.909Z,15.58
2017-04-24T11:46:40.832Z,16.15
2017-04-24T11:47:39.739Z,15.95
2017-04-24T11:48:38.732Z,16.37
2017-04-24T11:49:37.684Z,16.23
2017-04-24T11:50:36.615Z,16.05
2017-04-24T11:51:35.552Z,15.25
2017-04-24T11:52:34.477Z,15.83
2017-04-24T11:53:33.450Z,15.62
2017-04-24T11:54:32.440Z,16.63
2017-04-24T11:55:31.609Z,16.62
2017-04-24T11:56:30.550Z,16.38
2017-04-24T11:57:30.291Z,17.30
2017-04-24T11:58:29.279Z,16.87
2017-04-24T11:59:28.455Z,16.47
2017-04-24T12:00:27.452Z,17.50
2017-04-24T12:01:26.441Z,16.28
2017-04-24T12:02:25.400Z,16.38
2017-04-24T12:03:24.351Z,16.32
2017-04-24T12:04:24.280Z,15.35
2017-04-24T12:05:23.187Z,15.72
2017-04-24T12:06:22.157Z,16.72
2017-04-24T12:07:21.156Z,16.40
2017-04-24T12:08:20.239Z,16.20
2017-04-24T12:09:20.041Z,15.98
2017-04-24T12:10:18.981Z,15.97
2017-04-24T12:11:17.905Z,15.90
2017-04-24T12:12:16.896Z,16.03
2017-04-24T12:13:15.877Z,16.47
2017-04-24T12:14:14.955Z,16.00
2017-04-24T12:15:13.919Z,15.80
2017-04-24T12:16:12.867Z,16.22
2017-04-24T12:17:11.784Z,15.70
2017-04-24T12:18:10.789Z,16.37
2017-04-24T12:19:09.720Z,16.00
2017-04-24T12:20:08.660Z,16.47
2017-04-24T12:21:07.903Z,16.67
2017-04-24T12:22:06.803Z,16.62
2017-04-24T12:23:06.037Z,16.20
2017-04-24T12:24:05.759Z,15.22
2017-04-24T12:25:04.687Z,16.30
2017-04-24T12:26:03.661Z,16.00
2017-04-24T12:27:02.607Z,15.85
2017-04-24T12:28:02.451Z,15.87
2017-04-24T12:29:01.593Z,14.70
2017-04-24T12:30:00.531Z,15.38
2017-04-24T12:30:59.487Z,15.97
2017-04-24T12:32:02.440Z,15.20
2017-04-24T12:33:01.433Z,16.04
2017-04-24T12:34:00.439Z,15.18
2017-04-24T12:34:59.364Z,15.02
2017-04-24T12:35:59.044Z,14.63
2017-04-24T12:36:57.996Z,15.02
2017-04-24T12:37:56.930Z,14.25
2017-04-24T12:38:56.596Z,14.88
2017-04-24T12:39:55.504Z,14.63
2017-04-24T12:40:55.173Z,15.13
2017-04-24T12:41:54.115Z,14.62
2017-04-24T12:42:53.058Z,14.42
2017-04-24T12:43:53.566Z,14.90
2017-04-24T12:44:52.489Z,14.78
2017-04-24T12:45:51.443Z,15.57
2017-04-24T12:46:51.128Z,16.30
2017-04-24T12:47:50.844Z,15.30
2017-04-24T12:48:50.491Z,16.12
2017-04-24T12:49:49.440Z,15.85
2017-04-24T12:50:48.401Z,15.50
2017-04-24T12:51:48.129Z,14.77
2017-04-24T12:52:47.063Z,15.08
2017-04-24T12:53:46.040Z,14.60
2017-04-24T12:54:44.983Z,14.77
2017-04-24T12:55:43.904Z,14.95
2017-04-24T12:56:43.077Z,14.50
2017-04-24T12:57:42.161Z,13.97